»·PEaware :: DCM206 KBUR-KSBP

DCM206 :: KBUR-KSBP

FLIGHT INFORMATION

Flight Status: Arrived
Operator:
DotCom
More flights by this operator :: More flights under this callsign
Pilot: Nick L. (7253)
Aircraft: BOEING 727-200
(B722)
More flights by this aircraft type
Origin: KBUR Bob Hope-Burbank
United States
Destination: KSBP San Luis Co Regl
United States
More flights between these airports :: More routes between these airports
Route: VNY3 FIM V186 RZS MQO
File this flight plan on PilotEdge
Remarks: RMK / SIMBRIEF
Altitude:
(Current/Filed)
20,000ft
Speed:
(Current/Filed)
434kts
Departed: 01-Feb-21 07:42 PM
Arrived: 01-Feb-21 08:11 PM
Distance/Time
Traveled:
128nm/0:29
Distance/Time
To Go:
Arrived

Flight Plot

Page will automatically refresh every two minutes.


Map Options




Map Legend


Flown Route
Filed Route
Departure Airport
Arrival Airport
Navaid (VOR, NDB)
Fix

Horizontal Profiles

Position Reports

Time Latitude Longitude Heading Altitude Ground
Speed
01-Feb-21 19:15 34.200218 -118.358849 255 789ft 0kts
01-Feb-21 19:16 34.200218 -118.358849 255 789ft 0kts
01-Feb-21 19:17 34.200218 -118.358849 255 789ft 0kts
01-Feb-21 19:18 34.200218 -118.358849 255 789ft 0kts
01-Feb-21 19:19 34.200218 -118.358849 255 789ft 0kts
01-Feb-21 19:20 34.200218 -118.358849 255 789ft 0kts
01-Feb-21 19:21 34.200218 -118.358849 255 789ft 0kts
01-Feb-21 19:22 34.200218 -118.358849 255 789ft 0kts
01-Feb-21 19:23 34.200218 -118.358849 255 789ft 0kts
01-Feb-21 19:24 34.200218 -118.358849 255 789ft 0kts
01-Feb-21 19:25 34.200218 -118.358849 255 789ft 0kts
01-Feb-21 19:26 34.200218 -118.358849 255 789ft 0kts
01-Feb-21 19:27 34.200218 -118.358849 255 789ft 0kts
01-Feb-21 19:28 34.200218 -118.358849 255 789ft 0kts
01-Feb-21 19:29 34.200218 -118.358849 255 789ft 0kts
01-Feb-21 19:30 34.200218 -118.358849 255 789ft 0kts
01-Feb-21 19:31 34.200218 -118.358849 255 789ft 0kts
01-Feb-21 19:32 34.200218 -118.358850 255 789ft 0kts
01-Feb-21 19:33 34.200218 -118.358850 255 789ft 0kts
01-Feb-21 19:34 34.200218 -118.358850 255 789ft 0kts
01-Feb-21 19:35 34.200210 -118.358886 255 789ft 1kts
01-Feb-21 19:36 34.199688 -118.358772 114 789ft 0kts
01-Feb-21 19:37 34.202292 -118.358824 348 789ft 25kts
01-Feb-21 19:38 34.206138 -118.359881 347 789ft 7kts
01-Feb-21 19:39 34.210043 -118.360966 347 789ft 15kts
01-Feb-21 19:40 34.211542 -118.361194 29 789ft 5kts
01-Feb-21 19:41 34.202173 -118.357667 167 790ft 133kts
01-Feb-21 19:42 34.161502 -118.365396 223 1913ft 199kts
01-Feb-21 19:43 34.113575 -118.420426 225 4264ft 257kts
01-Feb-21 19:44 34.067136 -118.486829 266 7391ft 260kts
01-Feb-21 19:45 34.123286 -118.539049 328 9927ft 287kts
01-Feb-21 19:46 34.183345 -118.613416 306 11530ft 323kts
01-Feb-21 19:47 34.243360 -118.704242 303 12979ft 364kts
01-Feb-21 19:48 34.308315 -118.806475 304 13011ft 377kts
01-Feb-21 19:49 34.349407 -118.917623 266 13008ft 352kts
01-Feb-21 19:50 34.347055 -119.038021 263 13007ft 346kts
01-Feb-21 19:51 34.338649 -119.160006 262 13011ft 361kts
01-Feb-21 19:52 34.329032 -119.286201 262 13962ft 366kts
01-Feb-21 19:53 34.325460 -119.406574 282 17291ft 350kts
01-Feb-21 19:54 34.375971 -119.512857 297 19343ft 363kts
01-Feb-21 19:55 34.435140 -119.620996 296 20128ft 394kts
01-Feb-21 19:56 34.499768 -119.740341 297 20122ft 407kts
01-Feb-21 19:57 34.570287 -119.839050 305 19903ft 347kts
01-Feb-21 19:58 34.637250 -119.927882 305 17274ft 352kts
01-Feb-21 19:59 34.704463 -120.018636 307 15486ft 346kts
01-Feb-21 20:00 34.770109 -120.106945 308 13796ft 339kts
01-Feb-21 20:01 34.834257 -120.193524 308 12184ft 331kts
01-Feb-21 20:02 34.895588 -120.275451 309 10953ft 294kts
01-Feb-21 20:03 34.950251 -120.347471 309 9026ft 276kts
01-Feb-21 20:04 35.002399 -120.416814 309 6985ft 265kts
01-Feb-21 20:05 35.051371 -120.483314 309 5342ft 241kts
01-Feb-21 20:06 35.110071 -120.516158 342 4365ft 218kts
01-Feb-21 20:07 35.168212 -120.537965 335 2874ft 214kts
01-Feb-21 20:08 35.205861 -120.586138 306 1604ft 151kts
01-Feb-21 20:10 35.229157 -120.626500 305 429ft 139kts
01-Feb-21 20:11 35.241426 -120.646832 33 172ft 5kts
01-Feb-21 20:12 35.240743 -120.644868 125 180ft 17kts
01-Feb-21 20:13 35.238534 -120.641178 123 194ft 6kts
01-Feb-21 20:14 35.237397 -120.638948 123 203ft 7kts
01-Feb-21 20:15 35.237574 -120.637226 53 210ft 7kts
01-Feb-21 20:16 35.238007 -120.637568 272 208ft 0kts
01-Feb-21 20:17 35.238007 -120.637568 272 208ft 0kts

Navigation Log

Ident Type
Flight plan parsing failed, navigation log unavailable